UAL852 KLAX-KSFO
Flight info
| Callsign | UAL852 |
|---|---|
| Flight time | 0h 48m |
| Altitude | 40000 |
| Route | SUMMR2 STOKD DCT SERFR SERFR4 |
| Aircraft | A359/H-SDE2E3GHIJ3J4J5LM1ORWXY/LB1D1 |
Departure
| Time | 2026-04-24 10:54 |
|---|---|
| Airport | Los Angeles International Airport (KLAX) |
Arrival
| Time | 2026-04-24 11:42 |
|---|---|
| Airport | San Francisco International Airport (KSFO) |
| Time | Latitude | Longitude | Altitude | Speed | Heading |
|---|---|---|---|---|---|
| 2026-04-24 10:14 | 33.94020 | -118.41837 | 122 ft | 0 kts | 263° |
| 2026-04-24 10:44 | 33.94021 | -118.41824 | 122 ft | 2 kts | 263° |
| 2026-04-24 10:45 | 33.94024 | -118.41805 | 122 ft | 2 kts | 263° |
| 2026-04-24 10:45 | 33.94025 | -118.41788 | 123 ft | 2 kts | 263° |
| 2026-04-24 10:45 | 33.94025 | -118.41770 | 123 ft | 2 kts | 281° |
| 2026-04-24 10:45 | 33.94021 | -118.41753 | 123 ft | 2 kts | 297° |
| 2026-04-24 10:46 | 33.94014 | -118.41739 | 124 ft | 2 kts | 312° |
| 2026-04-24 10:46 | 33.94003 | -118.41727 | 124 ft | 2 kts | 327° |
| 2026-04-24 10:46 | 33.93990 | -118.41719 | 124 ft | 2 kts | 343° |
| 2026-04-24 10:46 | 33.93980 | -118.41717 | 125 ft | 0 kts | 353° |
| 2026-04-24 10:47 | 33.93978 | -118.41716 | 125 ft | 0 kts | 353° |
| 2026-04-24 10:47 | 33.93980 | -118.41717 | 124 ft | 1 kts | 353° |
| 2026-04-24 10:48 | 33.94033 | -118.41725 | 124 ft | 13 kts | 353° |
| 2026-04-24 10:48 | 33.94155 | -118.41743 | 122 ft | 23 kts | 353° |
| 2026-04-24 10:48 | 33.94349 | -118.41773 | 122 ft | 31 kts | 353° |
| 2026-04-24 10:48 | 33.94567 | -118.41805 | 124 ft | 31 kts | 353° |
| 2026-04-24 10:49 | 33.94700 | -118.41814 | 125 ft | 10 kts | 32° |
| 2026-04-24 10:49 | 33.94734 | -118.41731 | 125 ft | 13 kts | 77° |
| 2026-04-24 10:49 | 33.94743 | -118.41639 | 125 ft | 14 kts | 85° |
| 2026-04-24 10:49 | 33.94756 | -118.41502 | 127 ft | 14 kts | 82° |
| 2026-04-24 10:50 | 33.94780 | -118.41374 | 127 ft | 16 kts | 76° |
| 2026-04-24 10:50 | 33.94803 | -118.41206 | 128 ft | 25 kts | 82° |
| 2026-04-24 10:50 | 33.94831 | -118.40945 | 128 ft | 36 kts | 83° |
| 2026-04-24 10:50 | 33.94863 | -118.40621 | 125 ft | 39 kts | 83° |
| 2026-04-24 10:51 | 33.94895 | -118.40311 | 123 ft | 37 kts | 83° |
| 2026-04-24 10:51 | 33.94923 | -118.40029 | 119 ft | 28 kts | 83° |
| 2026-04-24 10:51 | 33.95005 | -118.39919 | 119 ft | 19 kts | 356° |
| 2026-04-24 10:51 | 33.95050 | -118.39963 | 119 ft | 3 kts | 262° |
| 2026-04-24 10:52 | 33.95035 | -118.40028 | 119 ft | 9 kts | 259° |
| 2026-04-24 10:52 | 33.95034 | -118.40037 | 119 ft | 0 kts | 262° |
| 2026-04-24 10:53 | 33.95015 | -118.40205 | 122 ft | 55 kts | 263° |
| 2026-04-24 10:53 | 33.94938 | -118.40964 | 129 ft | 124 kts | 263° |
| 2026-04-24 10:53 | 33.94807 | -118.42258 | 133 ft | 181 kts | 264° |
| 2026-04-24 10:54 | 33.94630 | -118.43800 | 710 ft | 189 kts | 262° |
| 2026-04-24 10:54 | 33.94409 | -118.45360 | 1407 ft | 192 kts | 261° |
| 2026-04-24 10:54 | 33.94360 | -118.46924 | 2062 ft | 190 kts | 288° |
| 2026-04-24 10:54 | 33.94996 | -118.48375 | 2379 ft | 203 kts | 306° |
| 2026-04-24 10:55 | 33.95832 | -118.49806 | 2736 ft | 219 kts | 307° |
| 2026-04-24 10:55 | 33.96711 | -118.51389 | 3199 ft | 236 kts | 304° |
| 2026-04-24 10:55 | 33.97591 | -118.53112 | 3693 ft | 252 kts | 302° |
| 2026-04-24 10:55 | 33.98500 | -118.55012 | 4225 ft | 268 kts | 301° |
| 2026-04-24 10:56 | 33.99409 | -118.56995 | 4956 ft | 275 kts | 301° |
| 2026-04-24 10:56 | 34.00326 | -118.59043 | 5785 ft | 279 kts | 300° |
| 2026-04-24 10:56 | 34.01247 | -118.61120 | 6607 ft | 283 kts | 300° |
| 2026-04-24 10:56 | 34.02166 | -118.63206 | 7409 ft | 288 kts | 300° |
| 2026-04-24 10:57 | 34.03108 | -118.65350 | 8210 ft | 292 kts | 300° |
| 2026-04-24 10:57 | 34.04067 | -118.67545 | 8999 ft | 298 kts | 299° |
| 2026-04-24 10:57 | 34.05037 | -118.69774 | 9778 ft | 303 kts | 299° |
| 2026-04-24 10:57 | 34.06079 | -118.71960 | 10488 ft | 309 kts | 307° |
| 2026-04-24 10:58 | 34.07456 | -118.74047 | 10987 ft | 323 kts | 312° |
| 2026-04-24 10:58 | 34.08970 | -118.76122 | 11423 ft | 339 kts | 313° |
| 2026-04-24 10:58 | 34.10579 | -118.78320 | 11834 ft | 356 kts | 312° |
| 2026-04-24 10:58 | 34.12271 | -118.80653 | 12235 ft | 373 kts | 312° |
| 2026-04-24 10:59 | 34.14005 | -118.83083 | 12597 ft | 389 kts | 311° |
| 2026-04-24 10:59 | 34.15789 | -118.85615 | 12916 ft | 405 kts | 311° |
| 2026-04-24 10:59 | 34.17626 | -118.88242 | 13265 ft | 419 kts | 311° |
| 2026-04-24 10:59 | 34.19524 | -118.90968 | 13866 ft | 425 kts | 311° |
| 2026-04-24 11:00 | 34.21419 | -118.93700 | 14561 ft | 428 kts | 311° |
| 2026-04-24 11:00 | 34.23354 | -118.96492 | 15238 ft | 430 kts | 311° |
| 2026-04-24 11:00 | 34.25262 | -118.99248 | 15875 ft | 433 kts | 311° |
| 2026-04-24 11:00 | 34.27213 | -119.02069 | 16512 ft | 436 kts | 311° |
| 2026-04-24 11:01 | 34.29163 | -119.04890 | 17134 ft | 439 kts | 311° |
| 2026-04-24 11:01 | 34.31107 | -119.07705 | 17717 ft | 442 kts | 311° |
| 2026-04-24 11:01 | 34.33099 | -119.10592 | 18274 ft | 446 kts | 311° |
| 2026-04-24 11:01 | 34.35099 | -119.13491 | 18809 ft | 450 kts | 311° |
| 2026-04-24 11:02 | 34.37111 | -119.16412 | 19333 ft | 454 kts | 311° |
| 2026-04-24 11:02 | 34.39130 | -119.19347 | 19847 ft | 457 kts | 311° |
| 2026-04-24 11:02 | 34.41161 | -119.22299 | 20352 ft | 461 kts | 311° |
| 2026-04-24 11:02 | 34.43216 | -119.25290 | 20848 ft | 464 kts | 311° |
| 2026-04-24 11:03 | 34.45305 | -119.28334 | 21336 ft | 468 kts | 311° |
| 2026-04-24 11:03 | 34.47375 | -119.31353 | 21810 ft | 471 kts | 311° |
| 2026-04-24 11:03 | 34.49494 | -119.34446 | 22285 ft | 474 kts | 310° |
| 2026-04-24 11:03 | 34.51596 | -119.37517 | 22736 ft | 478 kts | 310° |
| 2026-04-24 11:04 | 34.53710 | -119.40608 | 23178 ft | 481 kts | 310° |
| 2026-04-24 11:04 | 34.55857 | -119.43750 | 23616 ft | 484 kts | 310° |
| 2026-04-24 11:04 | 34.57995 | -119.46881 | 24039 ft | 487 kts | 310° |
| 2026-04-24 11:04 | 34.60151 | -119.50041 | 24453 ft | 490 kts | 310° |
| 2026-04-24 11:05 | 34.61046 | -119.51354 | 24618 ft | 491 kts | 310° |
| 2026-04-24 11:05 | 34.62042 | -119.52818 | 24796 ft | 492 kts | 310° |
| 2026-04-24 11:05 | 34.64243 | -119.56050 | 25168 ft | 495 kts | 310° |
| 2026-04-24 11:05 | 34.66436 | -119.59274 | 25529 ft | 498 kts | 310° |
| 2026-04-24 11:06 | 34.68637 | -119.62512 | 25886 ft | 500 kts | 310° |
| 2026-04-24 11:06 | 34.70853 | -119.65775 | 26226 ft | 503 kts | 310° |
| 2026-04-24 11:06 | 34.73059 | -119.69039 | 26542 ft | 505 kts | 309° |
| 2026-04-24 11:06 | 34.75299 | -119.72362 | 26886 ft | 506 kts | 309° |
| 2026-04-24 11:07 | 34.79695 | -119.78878 | 28159 ft | 492 kts | 309° |
| 2026-04-24 11:07 | 34.81865 | -119.82094 | 28338 ft | 498 kts | 309° |
| 2026-04-24 11:07 | 34.84084 | -119.85381 | 28600 ft | 501 kts | 309° |
| 2026-04-24 11:08 | 34.86251 | -119.88596 | 29215 ft | 495 kts | 309° |
| 2026-04-24 11:08 | 34.88429 | -119.91827 | 30180 ft | 482 kts | 309° |
| 2026-04-24 11:08 | 34.90490 | -119.94888 | 31141 ft | 468 kts | 309° |
| 2026-04-24 11:08 | 34.92535 | -119.97932 | 31853 ft | 460 kts | 310° |
| 2026-04-24 11:09 | 34.94542 | -120.00922 | 32384 ft | 455 kts | 310° |
| 2026-04-24 11:09 | 34.96525 | -120.03879 | 33170 ft | 442 kts | 310° |
| 2026-04-24 11:09 | 34.98439 | -120.06736 | 33716 ft | 433 kts | 311° |
| 2026-04-24 11:09 | 35.00321 | -120.09545 | 33991 ft | 431 kts | 311° |
| 2026-04-24 11:10 | 35.04114 | -120.15207 | 34028 ft | 427 kts | 312° |
| 2026-04-24 11:10 | 35.07840 | -120.20763 | 34029 ft | 425 kts | 312° |
| 2026-04-24 11:11 | 35.11662 | -120.26299 | 34028 ft | 423 kts | 318° |
| 2026-04-24 11:11 | 35.15945 | -120.31207 | 34031 ft | 422 kts | 321° |
| 2026-04-24 11:12 | 35.20252 | -120.36037 | 34031 ft | 422 kts | 321° |
| 2026-04-24 11:12 | 35.24617 | -120.40990 | 34032 ft | 435 kts | 320° |
| 2026-04-24 11:13 | 35.29072 | -120.46078 | 34030 ft | 440 kts | 320° |
| 2026-04-24 11:13 | 35.33548 | -120.51211 | 34030 ft | 440 kts | 320° |
| 2026-04-24 11:14 | 35.38031 | -120.56363 | 34034 ft | 444 kts | 320° |
| 2026-04-24 11:14 | 35.42613 | -120.61629 | 34035 ft | 460 kts | 320° |
| 2026-04-24 11:15 | 35.47255 | -120.66985 | 34044 ft | 463 kts | 319° |
| 2026-04-24 11:15 | 35.51898 | -120.72376 | 34060 ft | 463 kts | 319° |
| 2026-04-24 11:16 | 35.56555 | -120.77779 | 34074 ft | 462 kts | 319° |
| 2026-04-24 11:16 | 35.61232 | -120.83202 | 34085 ft | 463 kts | 319° |
| 2026-04-24 11:17 | 35.65921 | -120.88646 | 34090 ft | 463 kts | 319° |
| 2026-04-24 11:17 | 35.70593 | -120.94075 | 33981 ft | 464 kts | 319° |
| 2026-04-24 11:18 | 35.72950 | -120.96816 | 33516 ft | 465 kts | 319° |
| 2026-04-24 11:18 | 35.75301 | -120.99556 | 32928 ft | 467 kts | 320° |
| 2026-04-24 11:18 | 35.77649 | -121.02293 | 32298 ft | 469 kts | 320° |
| 2026-04-24 11:18 | 35.80029 | -121.05070 | 31636 ft | 471 kts | 320° |
| 2026-04-24 11:19 | 35.82387 | -121.07825 | 31151 ft | 468 kts | 320° |
| 2026-04-24 11:19 | 35.84727 | -121.10564 | 30723 ft | 465 kts | 320° |
| 2026-04-24 11:19 | 35.87060 | -121.13295 | 30279 ft | 461 kts | 320° |
| 2026-04-24 11:19 | 35.89384 | -121.16016 | 29879 ft | 457 kts | 320° |
| 2026-04-24 11:20 | 35.91678 | -121.18704 | 29499 ft | 452 kts | 320° |
| 2026-04-24 11:20 | 35.93919 | -121.21332 | 29116 ft | 448 kts | 320° |
| 2026-04-24 11:20 | 35.96199 | -121.24005 | 28706 ft | 446 kts | 320° |
| 2026-04-24 11:20 | 35.98518 | -121.26719 | 28286 ft | 468 kts | 320° |
| 2026-04-24 11:21 | 36.00886 | -121.29492 | 27813 ft | 478 kts | 320° |
| 2026-04-24 11:21 | 36.03303 | -121.32342 | 27365 ft | 477 kts | 320° |
| 2026-04-24 11:21 | 36.05776 | -121.35056 | 26886 ft | 471 kts | 326° |
| 2026-04-24 11:21 | 36.08507 | -121.37195 | 26345 ft | 464 kts | 334° |
| 2026-04-24 11:22 | 36.11266 | -121.39017 | 25764 ft | 460 kts | 336° |
| 2026-04-24 11:22 | 36.14068 | -121.40799 | 25155 ft | 456 kts | 336° |
| 2026-04-24 11:22 | 36.16868 | -121.42589 | 24648 ft | 451 kts | 336° |
| 2026-04-24 11:22 | 36.19626 | -121.44377 | 24111 ft | 446 kts | 335° |
| 2026-04-24 11:23 | 36.22384 | -121.46187 | 23540 ft | 442 kts | 335° |
| 2026-04-24 11:23 | 36.25054 | -121.47954 | 22982 ft | 439 kts | 335° |
| 2026-04-24 11:23 | 36.27763 | -121.49757 | 22415 ft | 435 kts | 335° |
| 2026-04-24 11:23 | 36.30399 | -121.51517 | 21831 ft | 432 kts | 334° |
| 2026-04-24 11:24 | 36.33025 | -121.53276 | 21332 ft | 427 kts | 334° |
| 2026-04-24 11:24 | 36.35651 | -121.55038 | 20872 ft | 424 kts | 334° |
| 2026-04-24 11:24 | 36.38247 | -121.56780 | 20428 ft | 422 kts | 334° |
| 2026-04-24 11:24 | 36.40840 | -121.58372 | 20017 ft | 419 kts | 338° |
| 2026-04-24 11:25 | 36.43492 | -121.59852 | 19594 ft | 416 kts | 339° |
| 2026-04-24 11:25 | 36.46155 | -121.61287 | 19058 ft | 413 kts | 339° |
| 2026-04-24 11:25 | 36.48760 | -121.62729 | 18689 ft | 409 kts | 338° |
| 2026-04-24 11:25 | 36.51326 | -121.64166 | 18280 ft | 408 kts | 338° |
| 2026-04-24 11:26 | 36.53910 | -121.65582 | 17772 ft | 405 kts | 338° |
| 2026-04-24 11:26 | 36.56488 | -121.66994 | 17216 ft | 403 kts | 338° |
| 2026-04-24 11:26 | 36.59053 | -121.68402 | 16641 ft | 400 kts | 338° |
| 2026-04-24 11:26 | 36.61613 | -121.69809 | 16075 ft | 397 kts | 338° |
| 2026-04-24 11:27 | 36.64108 | -121.71179 | 15599 ft | 393 kts | 338° |
| 2026-04-24 11:27 | 36.66622 | -121.72562 | 15084 ft | 389 kts | 338° |
| 2026-04-24 11:27 | 36.69093 | -121.73921 | 14616 ft | 386 kts | 337° |
| 2026-04-24 11:27 | 36.71560 | -121.75278 | 14168 ft | 398 kts | 337° |
| 2026-04-24 11:28 | 36.74110 | -121.76681 | 13725 ft | 399 kts | 337° |
| 2026-04-24 11:28 | 36.76638 | -121.78075 | 13305 ft | 397 kts | 337° |
| 2026-04-24 11:28 | 36.79179 | -121.79477 | 12949 ft | 394 kts | 337° |
| 2026-04-24 11:28 | 36.81694 | -121.80865 | 12638 ft | 393 kts | 337° |
| 2026-04-24 11:29 | 36.84165 | -121.82230 | 12348 ft | 391 kts | 337° |
| 2026-04-24 11:29 | 36.86650 | -121.83603 | 12064 ft | 390 kts | 337° |
| 2026-04-24 11:29 | 36.89137 | -121.84979 | 11780 ft | 388 kts | 337° |
| 2026-04-24 11:29 | 36.91600 | -121.86343 | 11447 ft | 386 kts | 337° |
| 2026-04-24 11:30 | 36.94034 | -121.87691 | 11076 ft | 384 kts | 337° |
| 2026-04-24 11:30 | 36.96451 | -121.89031 | 10684 ft | 382 kts | 337° |
| 2026-04-24 11:30 | 36.98883 | -121.90381 | 10281 ft | 379 kts | 337° |
| 2026-04-24 11:30 | 37.01290 | -121.91670 | 9845 ft | 377 kts | 339° |
| 2026-04-24 11:31 | 37.03698 | -121.92851 | 9337 ft | 374 kts | 340° |
| 2026-04-24 11:31 | 37.06136 | -121.94025 | 8791 ft | 371 kts | 340° |
| 2026-04-24 11:31 | 37.08539 | -121.95183 | 8234 ft | 368 kts | 340° |
| 2026-04-24 11:31 | 37.10924 | -121.96337 | 7693 ft | 365 kts | 340° |
| 2026-04-24 11:32 | 37.13274 | -121.97475 | 7282 ft | 358 kts | 340° |
| 2026-04-24 11:32 | 37.15582 | -121.98597 | 6936 ft | 349 kts | 340° |
| 2026-04-24 11:32 | 37.17789 | -121.99673 | 6620 ft | 341 kts | 339° |
| 2026-04-24 11:32 | 37.19992 | -122.00750 | 6267 ft | 335 kts | 339° |
| 2026-04-24 11:33 | 37.22133 | -122.01801 | 5881 ft | 330 kts | 339° |
| 2026-04-24 11:33 | 37.24235 | -122.02833 | 5507 ft | 325 kts | 339° |
| 2026-04-24 11:33 | 37.26335 | -122.03863 | 5107 ft | 314 kts | 339° |
| 2026-04-24 11:33 | 37.28164 | -122.04761 | 4721 ft | 292 kts | 339° |
| 2026-04-24 11:34 | 37.30040 | -122.05685 | 4366 ft | 271 kts | 339° |
| 2026-04-24 11:34 | 37.31739 | -122.06521 | 4165 ft | 248 kts | 339° |
| 2026-04-24 11:34 | 37.33264 | -122.07272 | 4111 ft | 225 kts | 339° |
| 2026-04-24 11:34 | 37.34670 | -122.07964 | 4064 ft | 213 kts | 339° |
| 2026-04-24 11:35 | 37.36040 | -122.08639 | 3997 ft | 213 kts | 339° |
| 2026-04-24 11:35 | 37.37412 | -122.09313 | 3938 ft | 212 kts | 339° |
| 2026-04-24 11:35 | 37.38734 | -122.09965 | 3889 ft | 212 kts | 339° |
| 2026-04-24 11:35 | 37.40158 | -122.10667 | 3835 ft | 221 kts | 339° |
| 2026-04-24 11:36 | 37.41643 | -122.11399 | 3785 ft | 236 kts | 339° |
| 2026-04-24 11:36 | 37.43169 | -122.12153 | 3748 ft | 238 kts | 339° |
| 2026-04-24 11:36 | 37.44709 | -122.12914 | 3708 ft | 238 kts | 339° |
| 2026-04-24 11:36 | 37.46244 | -122.13674 | 3662 ft | 237 kts | 339° |
| 2026-04-24 11:37 | 37.47750 | -122.14420 | 3569 ft | 228 kts | 339° |
| 2026-04-24 11:37 | 37.49201 | -122.15138 | 3520 ft | 217 kts | 339° |
| 2026-04-24 11:37 | 37.50568 | -122.15814 | 3428 ft | 208 kts | 339° |
| 2026-04-24 11:37 | 37.51899 | -122.16473 | 3235 ft | 204 kts | 339° |
| 2026-04-24 11:38 | 37.53196 | -122.17145 | 3056 ft | 200 kts | 330° |
| 2026-04-24 11:38 | 37.54120 | -122.18338 | 3020 ft | 188 kts | 303° |
| 2026-04-24 11:38 | 37.54753 | -122.19785 | 3026 ft | 187 kts | 297° |
| 2026-04-24 11:38 | 37.55299 | -122.21190 | 3005 ft | 169 kts | 297° |
| 2026-04-24 11:39 | 37.55803 | -122.22465 | 2995 ft | 160 kts | 298° |
| 2026-04-24 11:39 | 37.56321 | -122.23698 | 2917 ft | 159 kts | 299° |
| 2026-04-24 11:39 | 37.56844 | -122.24946 | 2708 ft | 163 kts | 298° |
| 2026-04-24 11:39 | 37.57393 | -122.26273 | 2005 ft | 181 kts | 298° |
| 2026-04-24 11:40 | 37.57959 | -122.27635 | 1496 ft | 174 kts | 298° |
| 2026-04-24 11:40 | 37.58500 | -122.28924 | 1243 ft | 157 kts | 298° |
| 2026-04-24 11:40 | 37.58998 | -122.30107 | 1039 ft | 155 kts | 297° |
| 2026-04-24 11:40 | 37.59502 | -122.31307 | 828 ft | 151 kts | 297° |
| 2026-04-24 11:41 | 37.59972 | -122.32424 | 621 ft | 138 kts | 297° |
| 2026-04-24 11:41 | 37.60410 | -122.33467 | 451 ft | 135 kts | 297° |
| 2026-04-24 11:41 | 37.60869 | -122.34499 | 240 ft | 135 kts | 297° |
| 2026-04-24 11:41 | 37.61299 | -122.35561 | 86 ft | 135 kts | 295° |
| 2026-04-24 11:42 | 37.61708 | -122.36563 | 17 ft | 109 kts | 297° |
| 2026-04-24 11:42 | 37.61966 | -122.37174 | 20 ft | 47 kts | 297° |
| 2026-04-24 11:42 | 37.62015 | -122.37292 | 20 ft | 4 kts | 299° |
| 2026-04-24 11:42 | 37.62071 | -122.37418 | 24 ft | 27 kts | 299° |
| 2026-04-24 11:43 | 37.62184 | -122.37700 | 30 ft | 40 kts | 294° |
| 2026-04-24 11:43 | 37.62217 | -122.37951 | 35 ft | 25 kts | 272° |
| 2026-04-24 11:43 | 37.62226 | -122.38176 | 35 ft | 26 kts | 266° |
| 2026-04-24 11:43 | 37.62159 | -122.38306 | 37 ft | 15 kts | 205° |
| 2026-04-24 11:44 | 37.62098 | -122.38332 | 37 ft | 5 kts | 197° |
| 2026-04-24 11:44 | 37.62053 | -122.38339 | 37 ft | 7 kts | 176° |
| 2026-04-24 11:44 | 37.62003 | -122.38296 | 36 ft | 10 kts | 123° |
| 2026-04-24 11:44 | 37.61963 | -122.38200 | 37 ft | 13 kts | 118° |
| 2026-04-24 11:45 | 37.61910 | -122.38075 | 37 ft | 18 kts | 122° |
| 2026-04-24 11:45 | 37.61797 | -122.37959 | 36 ft | 23 kts | 162° |
| 2026-04-24 11:45 | 37.61688 | -122.37953 | 36 ft | 1 kts | 195° |
| 2026-04-24 11:45 | 37.61675 | -122.37959 | 36 ft | 1 kts | 204° |
| 2026-04-24 11:46 | 37.61650 | -122.37976 | 36 ft | 8 kts | 206° |
| 2026-04-24 11:46 | 37.61592 | -122.38017 | 37 ft | 7 kts | 227° |
| 2026-04-24 11:46 | 37.61588 | -122.38048 | 37 ft | 2 kts | 293° |
| 2026-04-24 11:46 | 37.61606 | -122.38064 | 37 ft | 3 kts | 342° |
| 2026-04-24 11:47 | 37.61634 | -122.38073 | 37 ft | 4 kts | 343° |
| 2026-04-24 11:47 | 37.61639 | -122.38075 | 37 ft | 0 kts | 343° |